Andrews Air Force Base
KADW : now visible

Airfield :











YOU CAN JOIN US ON...

 
LOGIN :

Register | Disclaimer

   EN    FR    IT 

 









Legend :    VFR   Marginal VFR   IFR   Intensive IFR   Very Intensive IFR
Visi :
Ceiling :
>= 8 km
>= 3000ft
5 to 8 km
1000 to 3000 ft
1500m to 5 km
500 to 1000 ft
800 to 1500m
200 to 500 ft
< 800m
< 200 ft
Symbols :   Thunderstorms  Fog  Heavy snow  Heavy precipitations  Wind > 20 kt






- Airport Elevation : 280 ft


KADW - Andrews Air Force Base

CURRENT METAR :
  • 291531Z AUTO 07005KT 1 7/8SM RA BR OVC003 16/16 A2964 RMK AO2 VIS 1 7/8V5 VIS 1 3/8 RWY01R SLP043 FZRANO $

EXPIRED METARs :
  • 291516Z AUTO 04005KT 5SM -RA BR BKN002 OVC006 16/16 A2964 RMK AO2 VIS 2 RWY01R SLP043 FZRANO $
  • 291456Z AUTO 08004KT 2 3/4SM -RA BR BKN002 OVC011 15/15 A2966 RMK AO2 VIS 2 3/4V8 BKN V OVC PRESFR SLP050 P0028 60049 T01520152 57034 FZRANO $
  • 291416Z AUTO 12004KT 3SM RA BR BKN002 OVC009 15/14 A2970 RMK AO2 CIG 002V009 BKN V SCT SLP063 FZRANO $
  • 291406Z AUTO 09006KT 1 5/8SM +RA BR BKN002 OVC009 15/14 A2971 RMK AO2 VIS 1 5/8V3 SLP067 FZRANO $
  • 291356Z AUTO 18003KT 4SM -RA BR BKN002 OVC007 14/14 A2971 RMK AO2 SLP067 P0019 T01440142 FZRANO $
  • 291346Z AUTO 10006KT 4SM -RA BR OVC003 14/14 A2971 RMK AO2 SLP067 FZRANO $
  • 291336Z AUTO 13004KT 2 1/4SM RA BR OVC002 14/14 A2971 RMK AO2 VIS 2 1/4V4 SLP067 FZRANO $
  • 291256Z AUTO 09007KT 10SM -RA OVC002 14/14 A2974 RMK AO2 RAE1156DZB1156E24RAB24E27DZB27E29RAB29E41DZB41E44RAB44 SLP077 P0002 T01410136 FZRANO $

TAF AMD TAF KADW
Valid from the 29 at 15:00 until the 30 at 15:00 UTC


291510Z 2915/3015 12010KT 4800 RA BR OVC002 520053 QNH2960INS
BECMG 2916/2917 14015G25KT 4800 RA BR OVC002 520053 QNH2930INS
TEMPO 2920/2923 34025G35KT 520003
BECMG 2922/2923 29010G20KT 9999 -RA SCT002 OVC006 510052 QNH2932INS
BECMG 2923/2924 35010G15KT 9999 -RA SCT006 OVC010 QNH2948INS
BECMG 3011/3012 34015G25KT 9999 VCSH SCT010 BKN020 BKN040 510003 QNH2977INS TX19/2916Z TN11/3008Z
KZDC FIR / North America



MET'MAP, your aeronautical weather chart ! - Copyright ORBIFLY December 2007 - Disclaimer

ORBIFLY MET'MAP TEAM :

Programming & Development : Alexandra Zaïnal
Concept & original design : Baudouin d'Aumeries
Assistance for programming : Marc-Olivier Méhu
Technical & hardware support : Manuel Goepfert

Contact : metmap@orbifly.com




SOURCES & CREDITS :

   NOAA       Earth
Advisory